Time,TemperatureF,DewpointF,PressureIn,WindDirection,WindDirectionDegrees,WindSpeedMPH,WindSpeedGustMPH,Humidity,HourlyPrecipIn,Conditions,Clouds,dailyrainin,SoftwareType,DateUTC
2013-03-31 00:07:00,49.0,28.0,30.15,North,360,0.0,0.0,44,0.00,,SCT250,0.00,VWS V14.01,2013-03-31 04:07:00,
2013-03-31 00:08:00,48.9,27.9,30.15,North,360,0.0,0.0,44,0.00,,SCT250,0.00,VWS V14.01,2013-03-31 04:08:00,
2013-03-31 00:18:00,48.6,28.2,30.14,North,360,0.0,0.0,45,0.00,,SCT250,0.00,VWS V14.01,2013-03-31 04:18:00,
2013-03-31 00:23:00,48.5,28.6,30.14,North,360,0.0,0.0,46,0.00,,SCT250,0.00,VWS V14.01,2013-03-31 04:23:00,
2013-03-31 00:28:00,48.4,28.0,30.14,North,360,0.0,0.0,45,0.00,,SCT250,0.00,VWS V14.01,2013-03-31 04:28:00,
2013-03-31 00:33:00,48.2,28.4,30.14,North,360,0.0,0.0,46,0.00,,SCT250,0.00,VWS V14.01,2013-03-31 04:33:00,
2013-03-31 00:43:00,48.1,28.3,30.14,North,360,0.0,0.0,46,0.00,,SCT250,0.00,VWS V14.01,2013-03-31 04:43:00,
2013-03-31 00:48:00,48.2,27.8,30.14,North,360,0.0,0.0,45,0.00,,SCT250,0.00,VWS V14.01,2013-03-31 04:48:00,
2013-03-31 00:53:00,48.1,28.3,30.14,North,360,0.0,0.0,46,0.00,,SCT250,0.00,VWS V14.01,2013-03-31 04:53:00,
2013-03-31 00:58:00,47.8,28.6,30.13,North,360,0.0,0.0,47,0.00,,SCT250,0.00,VWS V14.01,2013-03-31 04:58:00,
2013-03-31 01:07:00,47.6,28.4,30.14,North,360,0.0,0.0,47,0.00,,SCT250,0.00,VWS V14.01,2013-03-31 05:07:00,
2013-03-31 01:13:00,47.8,28.6,30.13,North,360,0.0,0.0,47,0.00,,SCT250,0.00,VWS V14.01,2013-03-31 05:13:00,
2013-03-31 01:18:00,47.6,28.9,30.14,North,360,0.0,0.0,48,0.00,,SCT250,0.00,VWS V14.01,2013-03-31 05:18:00,
2013-03-31 01:23:00,47.6,28.4,30.13,North,360,0.0,0.0,47,0.00,,SCT250,0.00,VWS V14.01,2013-03-31 05:23:00,
2013-03-31 01:28:00,47.4,29.3,30.13,North,360,0.0,0.0,49,0.00,,SCT250,0.00,VWS V14.01,2013-03-31 05:28:00,
2013-03-31 01:38:00,47.3,28.6,30.13,North,360,0.0,0.0,48,0.00,,SCT250,0.00,VWS V14.01,2013-03-31 05:38:00,
2013-03-31 01:43:00,47.4,29.3,30.13,North,360,0.0,0.0,49,0.00,,SCT250,0.00,VWS V14.01,2013-03-31 05:43:00,
2013-03-31 01:48:00,47.3,29.2,30.13,North,360,0.0,0.0,49,0.00,,SCT250,0.00,VWS V14.01,2013-03-31 05:48:00,
2013-03-31 01:53:00,47.2,29.1,30.13,North,360,0.0,0.0,49,0.00,,SCT250,0.00,VWS V14.01,2013-03-31 05:53:00,
2013-03-31 01:58:00,47.1,29.0,30.13,North,360,0.0,0.0,49,0.00,,OVC250,0.00,VWS V14.01,2013-03-31 05:58:00,
2013-03-31 02:07:00,47.1,29.5,30.13,North,360,0.0,0.0,50,0.00,,OVC250,0.00,VWS V14.01,2013-03-31 06:07:00,
2013-03-31 02:13:00,47.2,29.1,30.12,North,360,0.0,0.0,49,0.00,,OVC250,0.00,VWS V14.01,2013-03-31 06:13:00,
2013-03-31 02:18:00,47.1,30.0,30.12,North,360,0.0,0.0,51,0.00,,OVC250,0.00,VWS V14.01,2013-03-31 06:18:00,
2013-03-31 02:25:00,47.1,30.0,30.12,North,360,0.0,0.0,51,0.00,,OVC250,0.00,VWS V14.01,2013-03-31 06:25:00,
2013-03-31 02:33:00,46.8,30.8,30.12,North,360,0.0,0.0,53,0.00,,OVC250,0.00,VWS V14.01,2013-03-31 06:33:00,
2013-03-31 02:43:00,46.9,30.9,30.11,North,360,0.0,0.0,53,0.00,,OVC250,0.00,VWS V14.01,2013-03-31 06:43:00,
2013-03-31 02:48:00,46.8,30.8,30.11,North,360,0.0,0.0,53,0.00,,OVC250,0.00,VWS V14.01,2013-03-31 06:48:00,
2013-03-31 02:53:00,46.9,30.4,30.11,North,360,0.0,0.0,52,0.00,,OVC250,0.00,VWS V14.01,2013-03-31 06:53:00,
2013-03-31 02:58:00,47.1,30.0,30.11,North,360,0.0,0.0,51,0.00,,OVC220,0.00,VWS V14.01,2013-03-31 06:58:00,
2013-03-31 03:07:00,47.0,29.9,30.11,North,360,0.0,0.0,51,0.00,,OVC220,0.00,VWS V14.01,2013-03-31 07:07:00,
2013-03-31 03:13:00,46.9,30.4,30.10,North,360,0.0,0.0,52,0.00,,OVC220,0.00,VWS V14.01,2013-03-31 07:13:00,
2013-03-31 03:18:00,46.9,29.9,30.10,North,360,0.0,0.0,51,0.00,,OVC220,0.00,VWS V14.01,2013-03-31 07:18:00,
2013-03-31 03:23:00,46.9,30.4,30.10,North,360,0.0,0.0,52,0.00,,OVC220,0.00,VWS V14.01,2013-03-31 07:23:00,
2013-03-31 03:28:00,46.7,30.7,30.10,North,360,0.0,0.0,53,0.00,,OVC220,0.00,VWS V14.01,2013-03-31 07:28:00,
2013-03-31 03:33:00,46.4,30.4,30.10,North,360,0.0,0.0,53,0.00,,OVC220,0.00,VWS V14.01,2013-03-31 07:33:00,
2013-03-31 03:38:00,46.2,30.2,30.09,North,360,0.0,0.0,53,0.00,,OVC220,0.00,VWS V14.01,2013-03-31 07:38:00,
2013-03-31 03:43:00,46.5,30.5,30.09,North,360,0.0,0.0,53,0.00,,OVC220,0.00,VWS V14.01,2013-03-31 07:43:00,
2013-03-31 03:48:00,46.4,31.3,30.09,North,360,0.0,0.0,55,0.00,,OVC220,0.00,VWS V14.01,2013-03-31 07:48:00,
2013-03-31 03:58:00,46.2,32.1,30.09,North,360,0.0,0.0,58,0.00,,OVC200,0.00,VWS V14.01,2013-03-31 07:58:00,
2013-03-31 04:07:00,46.0,32.3,30.09,North,360,0.0,0.0,59,0.00,,OVC200,0.00,VWS V14.01,2013-03-31 08:07:00,
2013-03-31 04:13:00,46.0,31.0,30.09,North,360,0.0,0.0,55,0.00,,OVC200,0.00,VWS V14.01,2013-03-31 08:13:00,
2013-03-31 04:18:00,45.9,30.4,30.08,North,360,0.0,0.0,54,0.00,,OVC200,0.00,VWS V14.01,2013-03-31 08:18:00,
2013-03-31 04:23:00,46.1,30.1,30.08,North,360,0.0,0.0,53,0.00,,OVC200,0.00,VWS V14.01,2013-03-31 08:23:00,
2013-03-31 04:28:00,46.2,30.2,30.08,North,360,0.0,0.0,53,0.00,,OVC200,0.00,VWS V14.01,2013-03-31 08:28:00,
2013-03-31 04:33:00,46.2,30.7,30.08,North,360,0.0,0.0,54,0.00,,OVC200,0.00,VWS V14.01,2013-03-31 08:33:00,
2013-03-31 04:38:00,46.1,31.1,30.08,North,360,0.0,0.0,55,0.00,,OVC200,0.00,VWS V14.01,2013-03-31 08:38:00,
2013-03-31 04:43:00,46.0,31.9,30.08,North,360,0.0,0.0,58,0.00,,OVC200,0.00,VWS V14.01,2013-03-31 08:43:00,
2013-03-31 04:53:00,45.7,31.6,30.07,North,360,0.0,0.0,58,0.00,,OVC200,0.00,VWS V14.01,2013-03-31 08:53:00,
2013-03-31 04:58:00,45.6,31.1,30.07,North,360,0.0,0.0,57,0.00,,CLR,0.00,VWS V14.01,2013-03-31 08:58:00,
2013-03-31 05:07:00,45.6,31.5,30.07,North,360,0.0,0.0,58,0.00,,CLR,0.00,VWS V14.01,2013-03-31 09:07:00,
2013-03-31 05:13:00,45.5,31.9,30.06,North,360,0.0,0.0,59,0.00,,CLR,0.00,VWS V14.01,2013-03-31 09:13:00,
2013-03-31 05:18:00,45.4,31.8,30.06,North,360,0.0,0.0,59,0.00,,CLR,0.00,VWS V14.01,2013-03-31 09:18:00,
2013-03-31 05:23:00,45.8,32.2,30.06,North,360,0.0,0.0,59,0.00,,CLR,0.00,VWS V14.01,2013-03-31 09:23:00,
2013-03-31 05:28:00,45.9,31.8,30.05,North,360,0.0,0.0,58,0.00,,CLR,0.00,VWS V14.01,2013-03-31 09:28:00,
2013-03-31 05:33:00,46.0,31.4,30.05,North,360,0.0,0.0,57,0.00,,CLR,0.00,VWS V14.01,2013-03-31 09:33:00,
2013-03-31 05:38:00,45.9,31.8,30.05,North,360,0.0,0.0,58,0.00,,CLR,0.00,VWS V14.01,2013-03-31 09:38:00,
2013-03-31 05:43:00,45.8,31.7,30.05,North,360,0.0,0.0,58,0.00,,CLR,0.00,VWS V14.01,2013-03-31 09:43:00,
2013-03-31 05:48:00,45.6,32.0,30.05,North,360,0.0,0.0,59,0.00,,CLR,0.00,VWS V14.01,2013-03-31 09:48:00,
2013-03-31 05:53:00,45.6,32.0,30.05,North,360,0.0,0.0,59,0.00,,CLR,0.00,VWS V14.01,2013-03-31 09:53:00,
2013-03-31 05:58:00,45.5,31.9,30.04,North,360,0.0,0.0,59,0.00,,OVC200,0.00,VWS V14.01,2013-03-31 09:58:00,
2013-03-31 06:07:00,45.7,32.1,30.04,North,360,0.0,0.0,59,0.00,,OVC200,0.00,VWS V14.01,2013-03-31 10:07:00,
2013-03-31 06:13:00,45.9,32.2,30.04,North,360,0.0,0.0,59,0.00,,OVC200,0.00,VWS V14.01,2013-03-31 10:13:00,
2013-03-31 06:18:00,46.0,32.3,30.04,North,360,0.0,0.0,59,0.00,,OVC200,0.00,VWS V14.01,2013-03-31 10:18:00,
2013-03-31 06:23:00,45.9,32.7,30.04,North,360,0.0,0.0,60,0.00,,OVC200,0.00,VWS V14.01,2013-03-31 10:23:00,
2013-03-31 06:28:00,45.9,32.7,30.04,North,360,0.0,0.0,60,0.00,,OVC200,0.00,VWS V14.01,2013-03-31 10:28:00,
2013-03-31 06:33:00,45.9,32.7,30.04,North,360,0.0,0.0,60,0.00,,OVC200,0.00,VWS V14.01,2013-03-31 10:33:00,
2013-03-31 06:38:00,45.8,33.5,30.04,North,360,0.0,0.0,62,0.00,,OVC200,0.00,VWS V14.01,2013-03-31 10:38:00,
2013-03-31 06:43:00,45.8,33.0,30.04,North,360,0.0,0.0,61,0.00,,OVC200,0.00,VWS V14.01,2013-03-31 10:43:00,
2013-03-31 06:48:00,45.8,33.0,30.04,North,360,0.0,0.0,61,0.00,,OVC200,0.00,VWS V14.01,2013-03-31 10:48:00,
2013-03-31 06:53:00,45.9,32.7,30.04,North,360,0.0,0.0,60,0.00,,OVC200,0.00,VWS V14.01,2013-03-31 10:53:00,
2013-03-31 07:07:00,45.7,33.0,30.04,North,360,0.0,0.0,61,0.00,,OVC190,0.00,VWS V14.01,2013-03-31 11:07:00,
2013-03-31 07:13:00,45.7,33.4,30.04,North,360,0.0,0.0,62,0.00,,OVC190,0.00,VWS V14.01,2013-03-31 11:13:00,
2013-03-31 07:18:00,45.7,33.4,30.04,North,360,0.0,0.0,62,0.00,,OVC190,0.00,VWS V14.01,2013-03-31 11:18:00,
2013-03-31 07:25:00,45.6,33.7,30.04,North,360,0.0,0.0,63,0.00,,OVC190,0.00,VWS V14.01,2013-03-31 11:25:00,
2013-03-31 07:33:00,45.8,33.9,30.04,North,360,0.0,0.0,63,0.00,,OVC190,0.00,VWS V14.01,2013-03-31 11:33:00,
2013-03-31 07:38:00,45.9,34.4,30.04,North,360,0.0,0.0,64,0.00,,OVC190,0.00,VWS V14.01,2013-03-31 11:38:00,
2013-03-31 07:43:00,46.0,34.1,30.04,North,360,0.0,0.0,63,0.00,,OVC190,0.00,VWS V14.01,2013-03-31 11:43:00,
2013-03-31 07:48:00,46.3,34.8,30.04,North,360,0.0,0.0,64,0.00,,OVC190,0.00,VWS V14.01,2013-03-31 11:48:00,
2013-03-31 07:53:00,46.2,34.7,30.04,North,360,0.0,0.0,64,0.00,,OVC190,0.00,VWS V14.01,2013-03-31 11:53:00,
2013-03-31 08:07:00,46.3,34.8,30.04,North,360,0.0,0.0,64,0.00,,OVC160,0.00,VWS V14.01,2013-03-31 12:07:00,
2013-03-31 08:13:00,46.6,35.5,30.04,North,360,0.0,0.0,65,0.00,,OVC160,0.00,VWS V14.01,2013-03-31 12:13:00,
2013-03-31 08:23:00,46.6,35.1,30.03,North,360,0.0,0.0,64,0.00,,OVC160,0.00,VWS V14.01,2013-03-31 12:23:00,
2013-03-31 08:28:00,46.8,35.3,30.04,North,360,0.0,0.0,64,0.00,,OVC160,0.00,VWS V14.01,2013-03-31 12:28:00,
2013-03-31 08:33:00,46.7,35.6,30.04,North,360,0.0,0.0,65,0.00,,OVC160,0.00,VWS V14.01,2013-03-31 12:33:00,
2013-03-31 08:38:00,46.8,35.7,30.04,North,360,0.0,0.0,65,0.00,,OVC160,0.00,VWS V14.01,2013-03-31 12:38:00,
2013-03-31 08:48:00,47.1,36.0,30.03,North,360,0.0,0.0,65,0.00,,OVC160,0.00,VWS V14.01,2013-03-31 12:48:00,
2013-03-31 08:53:00,47.1,36.0,30.03,North,360,0.0,0.0,65,0.00,,OVC160,0.00,VWS V14.01,2013-03-31 12:53:00,
2013-03-31 08:58:00,47.0,35.9,30.03,North,360,0.0,0.0,65,0.00,,OVC140,0.00,VWS V14.01,2013-03-31 12:58:00,
2013-03-31 09:07:00,47.0,36.3,30.02,North,360,0.0,0.0,66,0.00,,OVC140,0.00,VWS V14.01,2013-03-31 13:07:00,
2013-03-31 09:13:00,47.3,36.6,30.02,North,360,0.0,0.0,66,0.00,,OVC140,0.00,VWS V14.01,2013-03-31 13:13:00,
2013-03-31 09:18:00,47.2,36.9,30.02,North,360,0.0,0.0,67,0.00,,OVC140,0.00,VWS V14.01,2013-03-31 13:18:00,
2013-03-31 09:23:00,47.1,36.8,30.01,North,360,0.0,0.0,67,0.00,,OVC140,0.00,VWS V14.01,2013-03-31 13:23:00,
2013-03-31 09:28:00,47.2,36.9,30.01,North,360,0.0,0.0,67,0.00,,OVC140,0.00,VWS V14.01,2013-03-31 13:28:00,
2013-03-31 09:33:00,47.3,37.0,30.01,North,360,0.0,0.0,67,0.00,,OVC140,0.00,VWS V14.01,2013-03-31 13:33:00,
2013-03-31 09:38:00,47.5,37.2,30.00,North,360,0.0,0.0,67,0.00,,OVC140,0.00,VWS V14.01,2013-03-31 13:38:00,
2013-03-31 09:43:00,47.6,37.2,30.00,North,360,0.0,0.0,67,0.00,,OVC140,0.00,VWS V14.01,2013-03-31 13:43:00,
2013-03-31 09:48:00,47.9,37.9,30.00,North,360,0.0,0.0,68,0.00,,OVC140,0.00,VWS V14.01,2013-03-31 13:48:00,
2013-03-31 09:58:00,48.6,38.2,30.00,North,360,0.0,0.0,67,0.00,,OVC100,0.00,VWS V14.01,2013-03-31 13:58:00,
2013-03-31 10:07:00,49.1,37.9,30.00,North,360,0.0,0.0,65,0.00,,OVC100,0.00,VWS V14.01,2013-03-31 14:07:00,
2013-03-31 10:13:00,50.3,37.7,29.98,North,360,0.0,0.0,62,0.00,,OVC100,0.00,VWS V14.01,2013-03-31 14:13:00,
2013-03-31 10:18:00,50.8,38.2,29.98,North,360,0.0,0.0,62,0.00,,OVC100,0.00,VWS V14.01,2013-03-31 14:18:00,
2013-03-31 10:23:00,51.0,38.0,29.98,North,360,0.0,0.0,61,0.00,,OVC100,0.00,VWS V14.01,2013-03-31 14:23:00,
2013-03-31 10:28:00,50.7,38.5,29.98,North,360,0.0,0.0,63,0.00,,OVC100,0.00,VWS V14.01,2013-03-31 14:28:00,
2013-03-31 10:33:00,51.2,38.6,29.98,North,360,0.0,0.0,62,0.00,,OVC100,0.00,VWS V14.01,2013-03-31 14:33:00,
2013-03-31 10:38:00,51.6,39.0,29.98,North,360,0.0,0.0,62,0.00,,OVC100,0.00,VWS V14.01,2013-03-31 14:38:00,
2013-03-31 10:43:00,52.1,39.0,29.98,North,360,0.0,0.0,61,0.00,,OVC100,0.00,VWS V14.01,2013-03-31 14:43:00,
2013-03-31 10:48:00,52.4,39.3,29.98,North,360,0.0,0.0,61,0.00,,OVC100,0.00,VWS V14.01,2013-03-31 14:48:00,
2013-03-31 10:53:00,52.9,39.7,29.98,North,360,0.0,0.0,61,0.00,,OVC100,0.00,VWS V14.01,2013-03-31 14:53:00,
2013-03-31 11:07:00,53.5,40.3,29.97,North,360,0.0,0.0,61,0.00,,OVC120,0.00,VWS V14.01,2013-03-31 15:07:00,
2013-03-31 11:13:00,54.0,40.8,29.96,North,360,0.0,0.0,61,0.00,,OVC120,0.00,VWS V14.01,2013-03-31 15:13:00,
2013-03-31 11:18:00,54.4,41.2,29.95,North,360,0.0,0.0,61,0.00,,OVC120,0.00,VWS V14.01,2013-03-31 15:18:00,
2013-03-31 11:23:00,54.6,41.3,29.95,North,360,0.0,0.0,61,0.00,,OVC120,0.00,VWS V14.01,2013-03-31 15:23:00,
2013-03-31 11:28:00,54.6,41.3,29.95,North,360,0.0,0.0,61,0.00,,OVC120,0.00,VWS V14.01,2013-03-31 15:28:00,
2013-03-31 11:38:00,55.1,41.8,29.94,North,360,0.0,0.0,61,0.00,,OVC120,0.00,VWS V14.01,2013-03-31 15:38:00,
2013-03-31 11:43:00,55.3,42.5,29.94,North,360,0.0,0.0,62,0.00,,OVC120,0.00,VWS V14.01,2013-03-31 15:43:00,
2013-03-31 11:48:00,55.5,42.2,29.94,North,360,0.0,0.0,61,0.00,,OVC120,0.00,VWS V14.01,2013-03-31 15:48:00,
2013-03-31 11:53:00,55.6,41.8,29.93,North,360,0.0,0.0,60,0.00,,OVC120,0.00,VWS V14.01,2013-03-31 15:53:00,
2013-03-31 11:58:00,55.5,41.7,29.93,North,360,0.0,0.0,60,0.00,,OVC120,0.00,VWS V14.01,2013-03-31 15:58:00,
2013-03-31 12:07:00,55.5,42.2,29.93,North,360,0.0,0.0,61,0.00,,OVC120,0.00,VWS V14.01,2013-03-31 16:07:00,
2013-03-31 12:13:00,55.3,42.5,29.92,North,360,0.0,0.0,62,0.00,,OVC120,0.00,VWS V14.01,2013-03-31 16:13:00,
2013-03-31 12:18:00,55.1,42.3,29.92,North,360,0.0,0.0,62,0.00,,OVC120,0.00,VWS V14.01,2013-03-31 16:18:00,
2013-03-31 12:24:00,55.0,43.0,29.91,North,360,0.0,0.0,64,0.00,,OVC120,0.00,VWS V14.01,2013-03-31 16:24:00,
2013-03-31 12:33:00,54.1,44.3,29.91,North,360,0.0,0.0,69,0.00,,OVC120,0.00,VWS V14.01,2013-03-31 16:33:00,
2013-03-31 12:38:00,53.8,44.8,29.90,North,360,0.0,0.0,71,0.00,,OVC120,0.00,VWS V14.01,2013-03-31 16:38:00,
2013-03-31 12:43:00,53.7,44.7,29.90,North,360,0.0,0.0,71,0.00,,OVC120,0.00,VWS V14.01,2013-03-31 16:43:00,
2013-03-31 12:48:00,54.1,44.7,29.90,North,360,0.0,0.0,70,0.00,,OVC120,0.00,VWS V14.01,2013-03-31 16:48:00,
2013-03-31 12:53:00,53.8,44.8,29.89,North,360,0.0,0.0,71,0.00,,OVC120,0.00,VWS V14.01,2013-03-31 16:53:00,
2013-03-31 12:58:00,53.3,46.2,29.89,North,360,0.0,0.0,77,0.00,,OVC100,0.00,VWS V14.01,2013-03-31 16:58:00,
2013-03-31 13:07:00,53.4,45.9,29.88,North,360,0.0,0.0,76,0.00,,OVC100,0.00,VWS V14.01,2013-03-31 17:07:00,
2013-03-31 13:13:00,53.8,45.2,29.87,North,360,0.0,0.0,72,0.00,,OVC100,0.00,VWS V14.01,2013-03-31 17:13:00,
2013-03-31 13:18:00,53.9,44.9,29.87,North,360,0.0,0.0,71,0.00,,OVC100,0.00,VWS V14.01,2013-03-31 17:18:00,
2013-03-31 13:28:00,53.7,45.4,29.86,North,360,0.0,0.0,73,0.00,,OVC100,0.00,VWS V14.01,2013-03-31 17:28:00,
2013-03-31 13:33:00,53.7,45.4,29.86,North,360,0.0,0.0,73,0.00,,OVC100,0.00,VWS V14.01,2013-03-31 17:33:00,
2013-03-31 13:38:00,54.1,45.5,29.85,North,360,0.0,0.0,72,0.00,,OVC100,0.00,VWS V14.01,2013-03-31 17:38:00,
2013-03-31 13:43:00,54.2,45.5,29.85,North,360,0.0,0.0,72,0.00,,OVC100,0.00,VWS V14.01,2013-03-31 17:43:00,
2013-03-31 13:48:00,54.4,45.7,29.84,North,360,0.0,0.0,72,0.00,,OVC100,0.00,VWS V14.01,2013-03-31 17:48:00,
2013-03-31 13:58:00,54.3,46.0,29.84,North,360,0.0,0.0,73,0.00,,-RA,0.00,VWS V14.01,2013-03-31 17:58:00,
2013-03-31 14:07:00,54.2,45.9,29.84,North,360,0.0,0.0,73,0.00,,-RA,0.00,VWS V14.01,2013-03-31 18:07:00,
2013-03-31 14:13:00,53.0,47.3,29.84,North,360,0.0,0.0,81,0.00,,-RA,0.00,VWS V14.01,2013-03-31 18:13:00,
2013-03-31 14:19:00,52.4,47.8,29.84,North,360,0.0,0.0,84,0.00,,-RA,0.00,VWS V14.01,2013-03-31 18:19:00,
2013-03-31 14:28:00,51.5,48.5,29.83,North,360,0.0,0.0,89,0.00,,-RA,0.00,VWS V14.01,2013-03-31 18:28:00,
2013-03-31 14:38:00,51.2,48.8,29.82,North,360,0.0,0.0,92,0.00,,-RA,0.00,VWS V14.01,2013-03-31 18:38:00,
2013-03-31 14:43:00,51.3,49.2,29.82,North,360,0.0,0.0,93,0.00,,-RA,0.00,VWS V14.01,2013-03-31 18:43:00,
2013-03-31 14:53:00,51.2,49.4,29.82,North,360,0.0,0.0,94,0.00,,-RA,0.00,VWS V14.01,2013-03-31 18:53:00,
2013-03-31 14:58:00,51.2,49.4,29.82,North,360,0.0,0.0,94,0.00,,OVC024,0.00,VWS V14.01,2013-03-31 18:58:00,
2013-03-31 15:07:00,51.2,49.7,29.81,North,360,0.0,0.0,95,0.00,,OVC024,0.00,VWS V14.01,2013-03-31 19:07:00,
2013-03-31 15:13:00,51.1,49.3,29.79,North,360,0.0,0.0,94,0.00,,OVC024,0.00,VWS V14.01,2013-03-31 19:13:00,
2013-03-31 15:18:00,51.2,49.7,29.79,North,360,0.0,0.0,95,0.00,,OVC024,0.00,VWS V14.01,2013-03-31 19:18:00,
2013-03-31 15:23:00,51.3,49.8,29.79,North,360,0.0,0.0,95,0.00,,OVC024,0.00,VWS V14.01,2013-03-31 19:23:00,
2013-03-31 15:29:00,51.3,49.8,29.79,North,360,0.0,0.0,95,0.00,,OVC024,0.00,VWS V14.01,2013-03-31 19:29:00,
2013-03-31 15:43:00,51.4,49.9,29.80,North,360,0.0,0.0,95,0.00,,OVC024,0.00,VWS V14.01,2013-03-31 19:43:00,
2013-03-31 15:48:00,51.4,49.9,29.80,North,360,0.0,0.0,95,0.00,,OVC024,0.00,VWS V14.01,2013-03-31 19:48:00,
2013-03-31 15:53:00,51.3,49.8,29.80,North,360,0.0,0.0,95,0.00,,OVC024,0.00,VWS V14.01,2013-03-31 19:53:00,
2013-03-31 15:58:00,51.4,49.9,29.80,North,360,0.0,0.0,95,0.00,,,0.00,VWS V14.01,2013-03-31 19:58:00,
2013-03-31 16:07:00,51.5,50.0,29.80,North,360,0.0,0.0,95,0.00,,,0.00,VWS V14.01,2013-03-31 20:07:00,
2013-03-31 16:13:00,51.7,50.2,29.79,North,360,0.0,0.0,95,0.00,,,0.00,VWS V14.01,2013-03-31 20:13:00,
2013-03-31 16:18:00,51.7,49.9,29.79,North,360,0.0,0.0,94,0.00,,,0.00,VWS V14.01,2013-03-31 20:18:00,
2013-03-31 16:23:00,51.7,49.9,29.79,North,360,0.0,0.0,94,0.00,,,0.00,VWS V14.01,2013-03-31 20:23:00,
2013-03-31 16:28:00,51.8,50.0,29.79,North,360,0.0,0.0,94,0.00,,,0.00,VWS V14.01,2013-03-31 20:28:00,
2013-03-31 16:34:00,51.7,49.9,29.79,North,360,0.0,0.0,94,0.00,,,0.00,VWS V14.01,2013-03-31 20:34:00,
2013-03-31 16:43:00,51.7,49.9,29.78,North,360,0.0,0.0,94,0.00,,,0.00,VWS V14.01,2013-03-31 20:43:00,
2013-03-31 16:48:00,51.8,49.7,29.78,North,360,0.0,0.0,93,0.00,,,0.00,VWS V14.01,2013-03-31 20:48:00,
2013-03-31 16:53:00,52.0,50.2,29.78,North,360,0.0,0.0,94,0.00,,,0.00,VWS V14.01,2013-03-31 20:53:00,
2013-03-31 16:58:00,51.9,50.1,29.78,North,360,0.0,0.0,94,0.00,,,0.00,VWS V14.01,2013-03-31 20:58:00,
2013-03-31 17:07:00,51.9,50.1,29.78,North,360,0.0,0.0,94,0.00,,,0.00,VWS V14.01,2013-03-31 21:07:00,
2013-03-31 17:13:00,51.9,49.8,29.79,North,360,0.0,0.0,93,0.00,,,0.00,VWS V14.01,2013-03-31 21:13:00,
2013-03-31 17:18:00,52.0,49.9,29.78,North,360,0.0,0.0,93,0.00,,,0.00,VWS V14.01,2013-03-31 21:18:00,
2013-03-31 17:23:00,51.9,49.8,29.78,North,360,0.0,0.0,93,0.00,,,0.00,VWS V14.01,2013-03-31 21:23:00,
2013-03-31 17:28:00,51.9,49.8,29.78,North,360,0.0,0.0,93,0.00,,,0.00,VWS V14.01,2013-03-31 21:28:00,
2013-03-31 17:33:00,51.9,49.8,29.78,North,360,0.0,0.0,93,0.00,,,0.00,VWS V14.01,2013-03-31 21:33:00,
2013-03-31 17:38:00,52.0,49.9,29.78,North,360,0.0,0.0,93,0.00,,,0.00,VWS V14.01,2013-03-31 21:38:00,
2013-03-31 17:43:00,52.0,49.9,29.78,North,360,0.0,0.0,93,0.00,,,0.00,VWS V14.01,2013-03-31 21:43:00,
2013-03-31 17:48:00,52.0,49.9,29.78,North,360,0.0,0.0,93,0.00,,,0.00,VWS V14.01,2013-03-31 21:48:00,
2013-03-31 17:53:00,52.0,49.9,29.78,North,360,0.0,0.0,93,0.00,,,0.00,VWS V14.01,2013-03-31 21:53:00,
2013-03-31 17:58:00,52.0,49.6,29.78,North,360,0.0,0.0,92,0.00,,OVC008,0.00,VWS V14.01,2013-03-31 21:58:00,
2013-03-31 18:03:00,52.0,49.6,29.77,North,360,0.0,0.0,92,0.00,,OVC008,0.00,VWS V14.01,2013-03-31 22:03:00,
2013-03-31 18:13:00,52.1,49.7,29.77,North,360,0.0,0.0,92,0.00,,OVC008,0.00,VWS V14.01,2013-03-31 22:13:00,
2013-03-31 18:18:00,52.1,49.7,29.77,North,360,0.0,0.0,92,0.00,,OVC008,0.00,VWS V14.01,2013-03-31 22:18:00,
2013-03-31 18:23:00,52.2,49.8,29.78,North,360,0.0,0.0,92,0.00,,OVC008,0.00,VWS V14.01,2013-03-31 22:23:00,
2013-03-31 18:29:00,52.2,49.8,29.78,North,360,0.0,0.0,92,0.00,,OVC008,0.00,VWS V14.01,2013-03-31 22:29:00,
2013-03-31 18:38:00,52.3,49.9,29.77,North,360,0.0,0.0,92,0.00,,OVC008,0.00,VWS V14.01,2013-03-31 22:38:00,
2013-03-31 18:43:00,52.3,49.9,29.77,North,360,0.0,0.0,92,0.00,,OVC008,0.00,VWS V14.01,2013-03-31 22:43:00,
2013-03-31 18:48:00,52.2,49.8,29.76,North,360,0.0,0.0,92,0.00,,OVC008,0.00,VWS V14.01,2013-03-31 22:48:00,
2013-03-31 18:53:00,52.3,49.6,29.77,North,360,0.0,0.0,90,0.00,,OVC008,0.00,VWS V14.01,2013-03-31 22:53:00,
2013-03-31 18:59:00,52.3,49.6,29.77,North,360,0.0,0.0,90,0.00,,OVC010,0.00,VWS V14.01,2013-03-31 22:59:00,
2013-03-31 19:08:00,52.4,49.4,29.78,North,360,0.0,0.0,89,0.00,,OVC010,0.00,VWS V14.01,2013-03-31 23:08:00,
2013-03-31 19:13:00,52.5,48.8,29.78,North,360,0.0,0.0,87,0.00,,OVC010,0.00,VWS V14.01,2013-03-31 23:13:00,
2013-03-31 19:18:00,52.5,49.2,29.78,North,360,0.0,0.0,88,0.00,,OVC010,0.00,VWS V14.01,2013-03-31 23:18:00,
2013-03-31 19:23:00,52.4,48.7,29.77,North,360,0.0,0.0,87,0.00,,OVC010,0.00,VWS V14.01,2013-03-31 23:23:00,
2013-03-31 19:28:00,52.4,48.7,29.77,North,360,0.0,0.0,87,0.00,,OVC010,0.00,VWS V14.01,2013-03-31 23:28:00,
2013-03-31 19:33:00,52.3,48.6,29.78,North,360,0.0,0.0,87,0.00,,OVC010,0.00,VWS V14.01,2013-03-31 23:33:00,
2013-03-31 19:38:00,52.2,48.5,29.78,North,360,0.0,0.0,87,0.00,,OVC010,0.00,VWS V14.01,2013-03-31 23:38:00,
2013-03-31 19:43:00,52.1,48.4,29.78,North,360,0.0,0.0,87,0.00,,OVC010,0.00,VWS V14.01,2013-03-31 23:43:00,
2013-03-31 19:48:00,52.1,48.4,29.78,North,360,0.0,0.0,87,0.00,,OVC010,0.00,VWS V14.01,2013-03-31 23:48:00,
2013-03-31 19:53:00,52.0,48.3,29.77,North,360,0.0,0.0,87,0.00,,OVC010,0.00,VWS V14.01,2013-03-31 23:53:00,
2013-03-31 19:58:00,51.9,48.2,29.77,North,360,0.0,0.0,87,0.00,,OVC014,0.00,VWS V14.01,2013-03-31 23:58:00,
2013-03-31 20:07:00,51.9,48.2,29.77,North,360,0.0,0.0,87,0.00,,OVC014,0.00,VWS V14.01,2013-04-01 00:07:00,
2013-03-31 20:13:00,51.7,48.0,29.78,North,360,0.0,0.0,87,0.00,,OVC014,0.00,VWS V14.01,2013-04-01 00:13:00,
2013-03-31 20:18:00,51.6,48.0,29.78,North,360,0.0,0.0,87,0.00,,OVC014,0.00,VWS V14.01,2013-04-01 00:18:00,
2013-03-31 20:26:00,51.6,48.3,29.77,North,360,0.0,0.0,88,0.00,,OVC014,0.00,VWS V14.01,2013-04-01 00:26:00,
2013-03-31 20:33:00,51.4,48.1,29.78,North,360,0.0,0.0,88,0.00,,OVC014,0.00,VWS V14.01,2013-04-01 00:33:00,
2013-03-31 20:38:00,51.3,48.0,29.78,North,360,0.0,0.0,88,0.00,,OVC014,0.00,VWS V14.01,2013-04-01 00:38:00,
2013-03-31 20:43:00,51.4,48.1,29.78,North,360,0.0,0.0,88,0.00,,OVC014,0.00,VWS V14.01,2013-04-01 00:43:00,
2013-03-31 20:53:00,51.5,48.2,29.79,North,360,0.0,0.0,88,0.00,,OVC014,0.00,VWS V14.01,2013-04-01 00:53:00,
2013-03-31 20:58:00,51.4,48.1,29.79,North,360,0.0,0.0,88,0.00,,BKN250,0.00,VWS V14.01,2013-04-01 00:58:00,
2013-03-31 21:07:00,51.4,48.1,29.79,North,360,0.0,0.0,88,0.00,,BKN250,0.00,VWS V14.01,2013-04-01 01:07:00,
2013-03-31 21:14:00,51.3,48.3,29.80,North,360,0.0,0.0,89,0.00,,BKN250,0.00,VWS V14.01,2013-04-01 01:14:00,
2013-03-31 21:23:00,51.3,48.0,29.80,North,360,0.0,0.0,88,0.00,,BKN250,0.00,VWS V14.01,2013-04-01 01:23:00,
2013-03-31 21:28:00,51.3,48.0,29.80,North,360,0.0,0.0,88,0.00,,BKN250,0.00,VWS V14.01,2013-04-01 01:28:00,
2013-03-31 21:33:00,51.3,48.0,29.81,North,360,0.0,0.0,88,0.00,,BKN250,0.00,VWS V14.01,2013-04-01 01:33:00,
2013-03-31 21:38:00,51.5,48.2,29.81,North,360,0.0,0.0,88,0.00,,BKN250,0.00,VWS V14.01,2013-04-01 01:38:00,
2013-03-31 21:43:00,51.4,48.1,29.81,North,360,0.0,0.0,88,0.00,,BKN250,0.00,VWS V14.01,2013-04-01 01:43:00,
2013-03-31 21:48:00,51.4,48.1,29.82,North,360,0.0,0.0,88,0.00,,BKN250,0.00,VWS V14.01,2013-04-01 01:48:00,
2013-03-31 21:53:00,51.3,48.0,29.81,North,360,0.0,0.0,88,0.00,,BKN250,0.00,VWS V14.01,2013-04-01 01:53:00,
2013-03-31 22:07:00,51.2,47.9,29.81,North,360,0.0,0.0,88,0.00,,OVC085,0.00,VWS V14.01,2013-04-01 02:07:00,
2013-03-31 22:13:00,51.1,47.8,29.81,North,360,0.0,0.0,88,0.00,,OVC085,0.00,VWS V14.01,2013-04-01 02:13:00,
2013-03-31 22:18:00,51.1,48.1,29.81,North,360,0.0,0.0,89,0.00,,OVC085,0.00,VWS V14.01,2013-04-01 02:18:00,
2013-03-31 22:23:00,51.1,48.1,29.81,North,360,0.0,0.0,89,0.00,,OVC085,0.00,VWS V14.01,2013-04-01 02:23:00,
2013-03-31 22:28:00,51.1,48.1,29.81,North,360,0.0,0.0,89,0.00,,OVC085,0.00,VWS V14.01,2013-04-01 02:28:00,
2013-03-31 22:33:00,51.1,48.1,29.81,North,360,0.0,0.0,89,0.00,,OVC085,0.00,VWS V14.01,2013-04-01 02:33:00,
2013-03-31 22:38:00,51.0,48.0,29.81,North,360,0.0,0.0,89,0.00,,OVC085,0.00,VWS V14.01,2013-04-01 02:38:00,
2013-03-31 22:48:00,50.9,48.2,29.81,North,360,0.0,0.0,90,0.00,,OVC085,0.00,VWS V14.01,2013-04-01 02:48:00,
2013-03-31 22:53:00,50.9,48.2,29.81,North,360,0.0,0.0,90,0.00,,OVC085,0.00,VWS V14.01,2013-04-01 02:53:00,
2013-03-31 22:58:00,50.8,48.1,29.81,North,360,0.0,0.0,90,0.00,,OVC047,0.00,VWS V14.01,2013-04-01 02:58:00,
2013-03-31 23:07:00,50.6,47.9,29.80,North,360,0.0,0.0,90,0.00,,OVC047,0.00,VWS V14.01,2013-04-01 03:07:00,
2013-03-31 23:13:00,50.4,47.7,29.80,North,360,0.0,0.0,90,0.00,,OVC047,0.00,VWS V14.01,2013-04-01 03:13:00,
2013-03-31 23:18:00,50.2,47.8,29.81,North,360,0.0,0.0,92,0.00,,OVC047,0.00,VWS V14.01,2013-04-01 03:18:00,
2013-03-31 23:23:00,50.1,47.7,29.80,North,360,0.0,0.0,92,0.00,,OVC047,0.00,VWS V14.01,2013-04-01 03:23:00,
2013-03-31 23:28:00,49.9,47.8,29.80,North,360,0.0,0.0,93,0.00,,OVC047,0.00,VWS V14.01,2013-04-01 03:28:00,
2013-03-31 23:33:00,49.7,47.3,29.80,North,360,0.0,0.0,92,0.00,,OVC047,0.00,VWS V14.01,2013-04-01 03:33:00,
2013-03-31 23:43:00,49.5,47.4,29.80,North,360,0.0,0.0,93,0.00,,OVC047,0.00,VWS V14.01,2013-04-01 03:43:00,
2013-03-31 23:48:00,49.4,47.3,29.80,North,360,0.0,0.0,93,0.00,,OVC047,0.00,VWS V14.01,2013-04-01 03:48:00,
2013-03-31 23:53:00,49.4,47.3,29.80,North,360,0.0,0.0,93,0.00,,OVC047,0.00,VWS V14.01,2013-04-01 03:53:00,
2013-03-31 23:58:00,49.4,47.3,29.80,North,360,0.0,0.0,93,0.00,,OVC070,0.00,VWS V14.01,2013-04-01 03:58:00,